Battle Creek, MI

2:17 AM EST on February 28, 2015 (GMT -0500)
Wattles Park | Change Station
CLOSE
Current Station
Personal Weather Station
Location: Battle Creek, MI
Elevation: 903 ft
Nearby Weather Stations

Elev 903 ft 42.32 °N, 85.11 °W | Updated 1 second ago

Clear
Clear
-1.1 °F
Feels Like -1 °F
N
0.0
Wind Variable Wind from SW
Gusts 0.0 mph

Today
High -- | Low -- °F
--% Chance of Precip.
Yesterday
High -- | Low -- °F
Precip. -- in
7:17 AM 6:28 PM
Waxing Gibbous, 75% visible
Pressure 30.71 in
Visibility 10.0 miles
Clouds Clear
Windchill -1 °F
Dew Point -6 °F
Humidity 81%
Rainfall 0.00 in
Snow Depth Not available.
UV 0 out of 12
Pollen .30 out of 12
Air Quality Not available.
Flu Activity Not available.
METAR KBTL 280653Z 22006KT 10SM CLR M16/M21 A3064 RMK AO2 SLP397 T11611211

More Conditions Fewer Conditions

Pressure 30.71 in
Visibility 10.0 miles
Clouds Clear
Windchill -1 °F
Dew Point -6 °F
Humidity 81%
Rainfall 0.00 in
Snow Depth Not available.
UV 0 out of 12
Pollen .30 out of 12
Air Quality Not available.
Flu Activity Not available.
METAR KBTL 280653Z 22006KT 10SM CLR M16/M21 A3064 RMK AO2 SLP397 T11611211

More Conditions Fewer Conditions

10-Day Weather Forecast

Almanac

Astronomy

Feb. 28, 2015 Rise Set
Actual Time
Civil Twilight
Nautical Twilight
Astronomical Twilight
Moon
Length of Visible Light
Length of Day
Tomorrow will be .
, % of the Moon is Illuminated

Today's Extremes

State Highs State Lows

Community

WunderPhotos

Upload Photos

1,800,979 photos uploaded!

WunderBlogs® & News

Nearby

Air Quality

  Air Quality AQ Index Pollutant
Not available.

Snow Depth

Station Depth Elevation

Earthquake Activity

City Distance Mag. Time & Date
Minimum magnitude displayed is 2.5.

Coastal Water Temperatures

Place Temperature

Nearby Weather Stations